METAR Data
IDs: Format: Raw Decoded Include TAF

Data at: 1646 UTC 03 Dec 2021

KUKI 031556Z AUTO 00000KT 10SM CLR 04/02 A3013 RMK AO2 SLP202 T00440022

KUKI 031130Z 0312/0412 VRB01KT P6SM FEW250
  TEMPO 0409/0412 1SM BR BKN005